createdAt,value
2022-10-24T00:00:18.298Z,11.10
2022-10-24T00:01:22.784Z,12.36
2022-10-24T00:02:24.977Z,12.00
2022-10-24T00:03:28.738Z,9.90
2022-10-24T00:04:34.213Z,9.80
2022-10-24T00:05:36.942Z,8.70
2022-10-24T00:06:40.794Z,10.45
2022-10-24T00:07:43.027Z,10.40
2022-10-24T00:08:45.633Z,7.10
2022-10-24T00:09:47.421Z,8.60
2022-10-24T00:10:50.424Z,11.67
2022-10-24T00:11:52.562Z,10.50
2022-10-24T00:12:55.226Z,7.78
2022-10-24T00:13:57.487Z,10.90
2022-10-24T00:14:59.579Z,8.00
2022-10-24T00:16:01.456Z,7.40
2022-10-24T00:17:04.050Z,8.20
2022-10-24T00:18:06.187Z,11.50
2022-10-24T00:19:08.887Z,9.30
2022-10-24T00:20:13.736Z,9.90
2022-10-24T00:21:16.031Z,8.70
2022-10-24T00:22:17.819Z,10.80
2022-10-24T00:23:19.546Z,8.00
2022-10-24T00:24:21.585Z,10.33
2022-10-24T00:25:23.428Z,10.56
2022-10-24T00:26:25.361Z,9.11
2022-10-24T00:27:27.181Z,6.22
2022-10-24T00:28:30.335Z,8.56
2022-10-24T00:29:32.105Z,10.00
2022-10-24T00:30:34.033Z,8.89
2022-10-24T00:31:36.742Z,9.33
2022-10-24T00:32:38.608Z,8.60
2022-10-24T00:33:42.172Z,10.33
2022-10-24T00:34:45.227Z,8.60
2022-10-24T00:35:47.490Z,8.70
2022-10-24T00:36:58.013Z,9.50
2022-10-24T00:38:00.205Z,9.30
2022-10-24T00:39:02.367Z,9.56
2022-10-24T00:40:06.439Z,9.60
2022-10-24T00:41:11.972Z,11.70
2022-10-24T00:42:13.799Z,8.50
2022-10-24T00:43:19.730Z,8.67
2022-10-24T00:44:26.003Z,9.20
2022-10-24T00:45:50.518Z,11.60
2022-10-24T00:47:14.494Z,8.10
2022-10-24T00:48:25.399Z,9.20
2022-10-24T00:49:37.215Z,9.00
2022-10-24T00:50:39.291Z,8.70
2022-10-24T00:51:42.464Z,7.70
2022-10-24T00:52:47.400Z,10.18
2022-10-24T00:53:52.058Z,7.70
2022-10-24T00:54:56.483Z,10.00
2022-10-24T00:56:01.589Z,10.50
2022-10-24T00:57:22.505Z,8.30
2022-10-24T00:58:29.240Z,11.30
2022-10-24T00:59:35.402Z,9.40
2022-10-24T01:00:38.012Z,8.50
2022-10-24T01:01:43.006Z,10.20
2022-10-24T01:02:46.463Z,9.50
2022-10-24T01:03:48.490Z,9.30
2022-10-24T01:04:50.241Z,10.67
2022-10-24T01:06:10.752Z,8.11
2022-10-24T01:07:48.931Z,10.40
2022-10-24T01:09:04.340Z,10.30
2022-10-24T01:10:13.054Z,12.20
2022-10-24T01:11:21.340Z,11.20
2022-10-24T01:12:59.185Z,8.80
2022-10-24T01:14:04.791Z,9.70
2022-10-24T01:15:22.410Z,8.80
2022-10-24T01:16:43.239Z,9.20
2022-10-24T01:17:57.661Z,10.00
2022-10-24T01:19:26.819Z,9.20
2022-10-24T01:20:35.598Z,7.40
2022-10-24T01:21:44.095Z,9.50
2022-10-24T01:23:05.759Z,10.40
2022-10-24T01:24:41.741Z,8.60
2022-10-24T01:25:47.219Z,7.90
2022-10-24T01:26:59.008Z,10.80
2022-10-24T01:28:24.903Z,10.30
2022-10-24T01:29:52.117Z,11.70
2022-10-24T01:31:06.694Z,9.40
2022-10-24T01:32:17.935Z,9.10
2022-10-24T01:33:38.572Z,10.60
2022-10-24T01:34:49.958Z,8.10
2022-10-24T01:36:04.721Z,7.30
2022-10-24T01:37:14.917Z,5.30
2022-10-24T01:38:35.713Z,8.30
2022-10-24T01:39:41.799Z,7.50
2022-10-24T01:40:47.552Z,8.30
2022-10-24T01:41:51.076Z,8.40
2022-10-24T01:42:56.722Z,8.10
2022-10-24T01:44:26.806Z,7.50
2022-10-24T01:45:32.296Z,7.90
2022-10-24T01:46:46.554Z,8.70
2022-10-24T01:47:52.144Z,5.30
2022-10-24T01:49:06.904Z,7.40
2022-10-24T01:50:12.881Z,7.10
2022-10-24T01:51:17.896Z,9.40
2022-10-24T01:52:20.842Z,7.50
2022-10-24T01:53:25.101Z,9.20
2022-10-24T01:54:29.074Z,9.80
2022-10-24T01:55:33.104Z,7.30
2022-10-24T01:56:35.303Z,6.30
2022-10-24T01:57:37.679Z,8.80
2022-10-24T01:58:39.659Z,7.20
2022-10-24T01:59:48.505Z,8.33
2022-10-24T02:00:53.752Z,6.70
2022-10-24T02:02:05.779Z,8.20
2022-10-24T02:03:17.259Z,10.10
2022-10-24T02:04:22.080Z,7.80
2022-10-24T02:05:30.525Z,5.50
2022-10-24T02:06:36.627Z,7.30
2022-10-24T02:07:43.044Z,9.00
2022-10-24T02:08:48.625Z,10.10
2022-10-24T02:09:54.263Z,9.20
2022-10-24T02:10:59.761Z,7.60
2022-10-24T02:12:03.635Z,8.90
2022-10-24T02:13:14.873Z,10.90
2022-10-24T02:14:23.143Z,7.20
2022-10-24T02:15:28.645Z,9.40
2022-10-24T02:16:31.794Z,9.50
2022-10-24T02:17:33.941Z,8.82
2022-10-24T02:18:38.484Z,10.60
2022-10-24T02:19:40.808Z,8.70
2022-10-24T02:21:05.551Z,8.90
2022-10-24T02:22:29.250Z,11.70
2022-10-24T02:23:46.676Z,8.30
2022-10-24T02:26:12.551Z,11.40
2022-10-24T02:27:21.055Z,9.00
2022-10-24T02:28:25.677Z,9.20
2022-10-24T02:29:33.995Z,11.80
2022-10-24T02:30:39.564Z,11.00
2022-10-24T02:31:45.070Z,12.40
2022-10-24T02:32:50.587Z,8.20
2022-10-24T02:33:54.399Z,8.40
2022-10-24T02:34:58.076Z,11.80
2022-10-24T02:36:02.977Z,10.50
2022-10-24T02:37:07.935Z,11.50
2022-10-24T02:38:18.860Z,12.50
2022-10-24T02:39:22.484Z,9.40
2022-10-24T02:40:25.336Z,9.10
2022-10-24T02:41:33.730Z,11.40
2022-10-24T02:42:38.451Z,11.40
2022-10-24T02:43:42.075Z,11.40
2022-10-24T02:44:46.375Z,10.30
2022-10-24T02:45:51.677Z,10.70
2022-10-24T02:46:57.365Z,7.10
2022-10-24T02:48:02.846Z,10.30
2022-10-24T02:49:06.256Z,9.00
2022-10-24T02:50:09.558Z,7.60
2022-10-24T02:51:14.559Z,9.00
2022-10-24T02:52:17.684Z,9.20
2022-10-24T02:53:22.617Z,11.60
2022-10-24T02:54:24.694Z,9.90
2022-10-24T02:55:26.830Z,10.00
2022-10-24T02:56:29.551Z,11.00
2022-10-24T02:57:31.441Z,10.10
2022-10-24T02:58:33.080Z,9.00
2022-10-24T02:59:34.819Z,7.33
2022-10-24T03:00:36.705Z,8.22
2022-10-24T03:01:38.622Z,11.56
2022-10-24T03:02:40.891Z,10.56
2022-10-24T03:03:43.043Z,14.00
2022-10-24T03:04:44.923Z,12.50
2022-10-24T03:05:47.723Z,9.78
2022-10-24T03:06:49.746Z,12.09
2022-10-24T03:07:51.495Z,6.89
2022-10-24T03:08:53.338Z,10.00
2022-10-24T03:09:54.996Z,9.56
2022-10-24T03:10:57.280Z,11.11
2022-10-24T03:11:59.257Z,11.60
2022-10-24T03:13:01.134Z,12.20
2022-10-24T03:14:02.968Z,9.67
2022-10-24T03:15:06.095Z,6.89
2022-10-24T03:16:11.635Z,10.90
2022-10-24T03:17:12.625Z,11.50
2022-10-24T03:18:15.571Z,10.60
2022-10-24T03:19:17.498Z,11.90
2022-10-24T03:20:19.493Z,11.20
2022-10-24T03:21:21.545Z,12.44
2022-10-24T03:22:24.721Z,5.70
2022-10-24T03:23:27.664Z,10.30
2022-10-24T03:24:43.420Z,11.60
2022-10-24T03:25:33.511Z,13.90
2022-10-24T03:26:35.417Z,11.80
2022-10-24T03:27:37.855Z,8.00
2022-10-24T03:28:39.968Z,13.60
2022-10-24T03:29:42.383Z,11.20
2022-10-24T03:30:44.369Z,9.00
2022-10-24T03:31:46.292Z,13.67
2022-10-24T03:32:48.337Z,11.33
2022-10-24T03:33:50.440Z,12.60
2022-10-24T03:34:52.641Z,12.22
2022-10-24T03:35:55.064Z,9.00
2022-10-24T03:36:57.041Z,11.60
2022-10-24T03:37:59.263Z,10.22
2022-10-24T03:39:01.145Z,9.60
2022-10-24T03:40:03.738Z,9.30
2022-10-24T03:41:07.087Z,11.80
2022-10-24T03:42:08.947Z,13.30
2022-10-24T03:43:10.597Z,13.22
2022-10-24T03:44:12.618Z,11.33
2022-10-24T03:45:14.904Z,11.30
2022-10-24T03:46:17.728Z,11.90
2022-10-24T03:47:19.376Z,11.67
2022-10-24T03:48:21.051Z,9.67
2022-10-24T03:49:22.865Z,12.00
2022-10-24T03:50:24.913Z,13.70
2022-10-24T03:51:26.538Z,10.56
2022-10-24T03:52:28.640Z,11.11
2022-10-24T03:53:31.436Z,10.50
2022-10-24T03:54:33.551Z,12.45
2022-10-24T03:55:35.556Z,11.90
2022-10-24T03:56:38.030Z,11.80
2022-10-24T03:57:40.012Z,14.60
2022-10-24T03:58:42.198Z,7.33
2022-10-24T03:59:44.251Z,11.00
2022-10-24T04:00:46.083Z,12.80
2022-10-24T04:01:48.797Z,11.60
2022-10-24T04:02:51.089Z,9.90
2022-10-24T04:03:53.080Z,11.00
2022-10-24T04:04:54.821Z,10.89
2022-10-24T04:05:56.542Z,9.89
2022-10-24T04:06:59.062Z,10.89
2022-10-24T04:08:02.527Z,12.90
2022-10-24T04:09:04.910Z,11.10
2022-10-24T04:10:08.118Z,9.50
2022-10-24T04:11:10.119Z,9.60
2022-10-24T04:12:11.938Z,12.10
2022-10-24T04:13:14.174Z,11.89
2022-10-24T04:14:16.075Z,10.20
2022-10-24T04:15:17.964Z,13.11
2022-10-24T04:16:21.312Z,12.70
2022-10-24T04:17:23.332Z,13.50
2022-10-24T04:18:25.099Z,16.00
2022-10-24T04:19:27.055Z,13.56
2022-10-24T04:20:29.030Z,13.11
2022-10-24T04:21:30.872Z,14.44
2022-10-24T04:22:33.294Z,12.00
2022-10-24T04:23:35.429Z,11.10
2022-10-24T04:24:37.430Z,14.30
2022-10-24T04:25:39.928Z,16.20
2022-10-24T04:26:42.337Z,12.50
2022-10-24T04:27:44.646Z,9.70
2022-10-24T04:28:46.580Z,12.00
2022-10-24T04:29:49.161Z,10.33
2022-10-24T04:30:56.480Z,13.80
2022-10-24T04:31:58.955Z,10.80
2022-10-24T04:33:00.787Z,12.30
2022-10-24T04:34:02.679Z,15.44
2022-10-24T04:35:06.376Z,15.10
2022-10-24T04:36:09.147Z,11.30
2022-10-24T04:37:11.437Z,12.20
2022-10-24T04:38:13.692Z,12.70
2022-10-24T04:39:18.348Z,14.00
2022-10-24T04:40:20.386Z,16.40
2022-10-24T04:41:22.528Z,14.80
2022-10-24T04:42:29.702Z,15.50
2022-10-24T04:43:32.065Z,14.20
2022-10-24T04:44:35.102Z,13.40
2022-10-24T04:45:37.643Z,13.40
2022-10-24T04:46:39.608Z,11.50
2022-10-24T04:47:41.744Z,10.22
2022-10-24T04:48:44.170Z,15.30
2022-10-24T04:49:46.548Z,16.11
2022-10-24T04:50:48.521Z,14.50
2022-10-24T04:51:50.747Z,17.20
2022-10-24T04:52:52.494Z,16.70
2022-10-24T04:53:54.430Z,14.22
2022-10-24T04:54:56.058Z,13.56
2022-10-24T04:55:57.798Z,18.00
2022-10-24T04:57:00.443Z,15.78
2022-10-24T04:58:03.067Z,17.30
2022-10-24T04:59:05.445Z,12.90
2022-10-24T05:00:08.273Z,15.70
2022-10-24T05:01:10.601Z,13.80
2022-10-24T05:02:13.184Z,14.00
2022-10-24T05:03:17.142Z,18.00
2022-10-24T05:04:19.037Z,13.90
2022-10-24T05:05:21.311Z,14.00
2022-10-24T05:06:23.194Z,12.50
2022-10-24T05:07:25.602Z,15.00
2022-10-24T05:08:27.523Z,14.30
2022-10-24T05:09:29.454Z,13.11
2022-10-24T05:10:31.466Z,12.44
2022-10-24T05:11:33.397Z,14.11
2022-10-24T05:12:35.231Z,15.56
2022-10-24T05:13:38.735Z,12.33
2022-10-24T05:14:40.669Z,14.70
2022-10-24T05:15:43.409Z,16.00
2022-10-24T05:16:45.745Z,10.10
2022-10-24T05:17:47.884Z,18.10
2022-10-24T05:18:49.856Z,15.00
2022-10-24T05:19:51.969Z,14.20
2022-10-24T05:20:58.478Z,15.80
2022-10-24T05:22:00.509Z,16.30
2022-10-24T05:23:03.140Z,13.00
2022-10-24T05:24:05.118Z,14.60
2022-10-24T05:25:08.130Z,17.60
2022-10-24T05:26:11.150Z,14.70
2022-10-24T05:27:13.503Z,15.00
2022-10-24T05:28:15.772Z,17.00
2022-10-24T05:29:18.030Z,15.10
2022-10-24T05:30:21.214Z,17.90
2022-10-24T05:31:23.318Z,20.18
2022-10-24T05:32:25.704Z,24.40
2022-10-24T05:33:27.499Z,21.30
2022-10-24T05:34:29.261Z,13.44
2022-10-24T05:35:31.287Z,19.44
2022-10-24T05:36:33.115Z,24.00
2022-10-24T05:37:36.343Z,21.67
2022-10-24T05:38:38.302Z,20.70
2022-10-24T05:39:40.248Z,23.00
2022-10-24T05:40:42.187Z,19.56
2022-10-24T05:41:46.297Z,18.67
2022-10-24T05:42:49.053Z,16.60
2022-10-24T05:43:50.967Z,18.09
2022-10-24T05:44:53.906Z,20.44
2022-10-24T05:45:56.011Z,16.50
2022-10-24T05:46:59.244Z,19.70
2022-10-24T05:48:01.196Z,20.50
2022-10-24T05:49:03.245Z,16.22
2022-10-24T05:50:06.380Z,11.90
2022-10-24T05:51:08.330Z,17.91
2022-10-24T05:52:10.682Z,17.00
2022-10-24T05:53:14.636Z,16.10
2022-10-24T05:54:17.182Z,13.70
2022-10-24T05:55:19.021Z,16.40
2022-10-24T05:56:20.929Z,19.00
2022-10-24T05:57:23.045Z,15.89
2022-10-24T05:58:24.962Z,17.20
2022-10-24T05:59:28.009Z,13.00
2022-10-24T06:00:30.216Z,16.90
2022-10-24T06:01:32.828Z,12.80
2022-10-24T06:02:35.386Z,17.90
2022-10-24T06:03:37.374Z,15.00
2022-10-24T06:04:39.569Z,14.67
2022-10-24T06:05:41.376Z,13.80
2022-10-24T06:06:45.456Z,12.80
2022-10-24T06:07:47.934Z,16.30
2022-10-24T06:08:51.059Z,12.82
2022-10-24T06:09:53.112Z,16.80
2022-10-24T06:10:56.353Z,17.10
2022-10-24T06:11:58.558Z,14.00
2022-10-24T06:13:00.474Z,16.10
2022-10-24T06:14:03.118Z,16.67
2022-10-24T06:15:08.253Z,14.09
2022-10-24T06:16:11.939Z,17.00
2022-10-24T06:17:14.386Z,19.60
2022-10-24T06:18:16.363Z,16.80
2022-10-24T06:19:18.720Z,14.78
2022-10-24T06:20:20.704Z,14.40
2022-10-24T06:21:22.965Z,9.22
2022-10-24T06:22:25.141Z,13.40
2022-10-24T06:23:27.456Z,16.60
2022-10-24T06:24:29.695Z,14.90
2022-10-24T06:25:31.857Z,16.40
2022-10-24T06:26:34.340Z,15.20
2022-10-24T06:27:36.851Z,14.60
2022-10-24T06:28:38.554Z,13.70
2022-10-24T06:29:41.199Z,13.33
2022-10-24T06:30:43.098Z,16.50
2022-10-24T06:31:44.933Z,13.33
2022-10-24T06:32:47.273Z,9.56
2022-10-24T06:33:49.323Z,15.20
2022-10-24T06:34:51.538Z,13.11
2022-10-24T06:35:53.259Z,18.10
2022-10-24T06:36:56.124Z,12.56
2022-10-24T06:37:58.565Z,13.64
2022-10-24T06:39:00.347Z,13.60
2022-10-24T06:40:02.558Z,13.78
2022-10-24T06:41:10.213Z,13.70
2022-10-24T06:42:12.201Z,16.20
2022-10-24T06:43:14.901Z,13.80
2022-10-24T06:44:17.487Z,12.70
2022-10-24T06:45:20.316Z,13.90
2022-10-24T06:46:22.767Z,12.73
2022-10-24T06:47:24.651Z,14.50
2022-10-24T06:48:27.002Z,14.33
2022-10-24T06:49:28.813Z,15.20
2022-10-24T06:50:31.088Z,15.40
2022-10-24T06:51:32.993Z,12.30
2022-10-24T06:52:36.900Z,17.40
2022-10-24T06:53:38.605Z,12.00
2022-10-24T06:54:40.353Z,13.78
2022-10-24T06:55:42.104Z,12.33
2022-10-24T06:56:44.654Z,16.80
2022-10-24T06:57:47.071Z,11.70
2022-10-24T06:58:49.098Z,10.60
2022-10-24T06:59:50.808Z,10.78
2022-10-24T07:00:53.209Z,14.89
2022-10-24T07:01:55.415Z,14.10
2022-10-24T07:02:57.278Z,13.30
2022-10-24T07:03:58.913Z,14.33
2022-10-24T07:05:00.722Z,12.00
2022-10-24T07:06:11.521Z,11.11
2022-10-24T07:07:19.273Z,12.80
2022-10-24T07:08:22.122Z,14.10
2022-10-24T07:09:23.874Z,12.55
2022-10-24T07:10:25.932Z,14.40
2022-10-24T07:11:28.785Z,11.00
2022-10-24T07:12:30.804Z,12.10
2022-10-24T07:13:33.164Z,10.30
2022-10-24T07:14:35.059Z,12.30
2022-10-24T07:15:37.033Z,13.50
2022-10-24T07:16:39.259Z,14.70
2022-10-24T07:17:45.212Z,14.20
2022-10-24T07:18:47.954Z,6.20
2022-10-24T07:19:54.189Z,14.30
2022-10-24T07:21:06.449Z,14.30
2022-10-24T07:22:09.065Z,9.30
2022-10-24T07:23:11.099Z,11.60
2022-10-24T07:24:13.469Z,14.90
2022-10-24T07:25:16.699Z,14.70
2022-10-24T07:26:21.027Z,12.90
2022-10-24T07:27:23.473Z,14.50
2022-10-24T07:28:25.173Z,16.20
2022-10-24T07:29:26.951Z,26.00
2022-10-24T07:30:29.034Z,23.20
2022-10-24T07:31:33.539Z,18.80
2022-10-24T07:32:35.527Z,17.00
2022-10-24T07:33:37.475Z,19.44
2022-10-24T07:34:40.424Z,21.44
2022-10-24T07:35:44.012Z,18.64
2022-10-24T07:36:45.993Z,18.50
2022-10-24T07:37:48.484Z,17.67
2022-10-24T07:38:53.514Z,11.10
2022-10-24T07:39:55.466Z,12.90
2022-10-24T07:40:57.464Z,14.10
2022-10-24T07:41:59.470Z,11.33
2022-10-24T07:43:01.199Z,15.70
2022-10-24T07:44:03.138Z,9.78
2022-10-24T07:45:06.514Z,11.11
2022-10-24T07:46:10.724Z,14.30
2022-10-24T07:47:13.239Z,12.50
2022-10-24T07:48:15.234Z,12.90
2022-10-24T07:49:18.392Z,12.60
2022-10-24T07:50:20.413Z,12.60
2022-10-24T07:51:22.919Z,11.33
2022-10-24T07:52:24.699Z,11.90
2022-10-24T07:53:26.469Z,12.56
2022-10-24T07:54:29.730Z,2.78
2022-10-24T07:55:32.793Z,14.90
2022-10-24T07:56:35.478Z,11.80
2022-10-24T07:57:37.449Z,9.30
2022-10-24T07:58:39.875Z,10.33
2022-10-24T07:59:42.675Z,11.00
2022-10-24T08:00:46.220Z,11.90
2022-10-24T08:01:49.142Z,13.80
2022-10-24T08:02:51.773Z,11.40
2022-10-24T08:03:55.113Z,11.60
2022-10-24T08:04:56.969Z,12.40
2022-10-24T08:05:58.832Z,12.11
2022-10-24T08:07:01.312Z,12.20
2022-10-24T08:08:27.640Z,12.40
2022-10-24T08:09:09.167Z,11.80
2022-10-24T08:10:16.137Z,14.20
2022-10-24T08:12:32.184Z,10.50
2022-10-24T08:13:34.962Z,13.50
2022-10-24T08:16:06.464Z,12.10
2022-10-24T08:17:09.836Z,9.90
2022-10-24T08:18:12.211Z,11.10
2022-10-24T08:19:16.202Z,9.60
2022-10-24T08:20:19.075Z,12.10
2022-10-24T08:21:23.289Z,11.90
2022-10-24T08:22:25.992Z,12.10
2022-10-24T08:23:28.611Z,11.00
2022-10-24T08:24:30.680Z,13.00
2022-10-24T08:25:32.593Z,8.10
2022-10-24T08:26:34.410Z,9.10
2022-10-24T08:27:37.341Z,10.89
2022-10-24T08:28:47.220Z,10.40
2022-10-24T08:29:49.582Z,11.90
2022-10-24T08:30:57.691Z,10.60
2022-10-24T08:31:59.985Z,12.10
2022-10-24T08:33:01.678Z,7.90
2022-10-24T08:34:03.809Z,9.78
2022-10-24T08:35:07.953Z,13.30
2022-10-24T08:36:22.800Z,11.00
2022-10-24T08:37:25.287Z,12.70
2022-10-24T08:38:29.571Z,13.00
2022-10-24T08:39:31.428Z,14.90
2022-10-24T08:40:33.976Z,14.10
2022-10-24T08:41:39.947Z,11.30
2022-10-24T08:42:43.272Z,11.40
2022-10-24T08:43:45.997Z,13.40
2022-10-24T08:44:47.772Z,13.10
2022-10-24T08:46:14.908Z,13.67
2022-10-24T08:48:49.896Z,11.80
2022-10-24T08:49:55.360Z,11.60
2022-10-24T08:51:01.114Z,12.90
2022-10-24T08:52:18.477Z,10.00
2022-10-24T08:53:24.364Z,9.90
2022-10-24T08:54:32.949Z,13.10
2022-10-24T08:55:49.740Z,14.00
2022-10-24T08:56:54.774Z,10.40
2022-10-24T08:57:59.502Z,10.00
2022-10-24T08:59:03.855Z,11.30
2022-10-24T09:00:22.672Z,6.40
2022-10-24T09:01:37.121Z,11.40
2022-10-24T09:02:42.230Z,13.00
2022-10-24T09:03:56.654Z,12.90
2022-10-24T09:04:56.003Z,11.30
2022-10-24T09:06:01.553Z,14.00
2022-10-24T09:07:05.133Z,13.10
2022-10-24T09:08:18.242Z,12.70
2022-10-24T09:09:27.292Z,13.80
2022-10-24T09:10:44.637Z,12.70
2022-10-24T09:11:55.927Z,10.80
2022-10-24T13:33:40.104Z,35.30
2022-10-24T13:34:52.070Z,35.90
2022-10-24T13:36:11.970Z,41.80
2022-10-24T13:37:17.651Z,37.60
2022-10-24T13:39:28.099Z,42.90
2022-10-24T13:40:33.152Z,34.40
2022-10-24T13:41:45.105Z,37.80
2022-10-24T13:43:06.841Z,34.60
2022-10-24T13:44:13.138Z,33.40
2022-10-24T13:45:24.167Z,31.30
2022-10-24T13:46:29.852Z,29.60
2022-10-24T13:47:38.505Z,28.80
2022-10-24T13:48:45.102Z,30.60
2022-10-24T13:49:53.434Z,26.70
2022-10-24T13:51:19.059Z,25.90
2022-10-24T13:52:27.577Z,26.30
2022-10-24T13:53:33.982Z,25.40
2022-10-24T13:54:38.372Z,24.00
2022-10-24T13:55:46.393Z,21.40
2022-10-24T13:56:48.879Z,23.50
2022-10-24T13:57:54.203Z,24.30
2022-10-24T13:58:56.268Z,22.30
2022-10-24T14:00:01.664Z,23.70
2022-10-24T14:01:08.889Z,20.50
2022-10-24T14:02:17.502Z,20.60
2022-10-24T14:03:23.032Z,19.60
2022-10-24T14:04:26.865Z,21.80
2022-10-24T14:05:35.090Z,18.10
2022-10-24T14:06:38.254Z,18.40
2022-10-24T14:07:41.207Z,19.30
2022-10-24T14:08:56.069Z,20.70
2022-10-24T14:09:57.207Z,19.30
2022-10-24T14:11:02.520Z,19.10
2022-10-24T14:12:04.932Z,17.50
2022-10-24T14:13:10.522Z,4.70
2022-10-24T14:15:34.505Z,23.50
2022-10-24T14:16:36.768Z,21.30
2022-10-24T14:17:38.682Z,23.00
2022-10-24T14:18:42.949Z,22.78
2022-10-24T14:19:57.120Z,22.40
2022-10-24T14:21:01.961Z,19.50
2022-10-24T14:22:07.502Z,15.40
2022-10-24T14:23:26.349Z,20.30
2022-10-24T14:24:30.657Z,19.30
2022-10-24T14:25:37.069Z,20.80
2022-10-24T14:26:41.126Z,19.70
2022-10-24T14:27:44.643Z,21.00
2022-10-24T14:28:50.857Z,20.40
2022-10-24T14:29:59.587Z,20.10
2022-10-24T14:31:06.453Z,20.00
2022-10-24T14:32:13.696Z,19.00
2022-10-24T14:33:19.325Z,22.20
2022-10-24T14:34:22.352Z,21.10
2022-10-24T14:35:24.832Z,24.00
2022-10-24T14:36:32.111Z,24.60
2022-10-24T14:37:38.837Z,21.50
2022-10-24T14:38:45.798Z,24.30
2022-10-24T14:39:47.973Z,18.70
2022-10-24T14:41:01.255Z,26.00
2022-10-24T14:41:55.542Z,21.90
2022-10-24T14:43:01.461Z,23.90
2022-10-24T14:44:05.833Z,23.60
2022-10-24T14:45:24.090Z,23.30
2022-10-24T14:46:33.294Z,22.60
2022-10-24T14:47:38.684Z,24.70
2022-10-24T14:48:43.803Z,22.30
2022-10-24T14:49:46.090Z,23.20
2022-10-24T14:50:48.195Z,30.00
2022-10-24T14:52:55.114Z,28.30
2022-10-24T14:53:57.692Z,26.50
2022-10-24T14:55:05.911Z,30.10
2022-10-24T14:56:21.147Z,29.00
2022-10-24T14:57:23.498Z,29.00
2022-10-24T14:58:28.609Z,24.00
2022-10-24T14:59:36.850Z,25.30
2022-10-24T15:00:39.870Z,24.40
2022-10-24T15:01:45.489Z,24.40
2022-10-24T15:02:51.316Z,23.80
2022-10-24T15:03:59.278Z,26.80
2022-10-24T15:05:22.923Z,22.90
2022-10-24T15:06:28.080Z,24.10
2022-10-24T15:07:34.740Z,24.10
2022-10-24T15:08:39.272Z,25.30
2022-10-24T15:09:59.106Z,28.60
2022-10-24T15:11:07.658Z,27.60
2022-10-24T15:12:12.355Z,24.40
2022-10-24T15:13:17.903Z,27.60
2022-10-24T15:14:39.048Z,24.50
2022-10-24T15:15:51.111Z,27.00
2022-10-24T15:16:54.106Z,26.80
2022-10-24T15:18:00.977Z,28.27
2022-10-24T15:19:04.788Z,29.10
2022-10-24T15:20:11.045Z,33.80
2022-10-24T15:21:16.449Z,31.50
2022-10-24T15:22:24.742Z,30.90
2022-10-24T15:23:39.348Z,29.91
2022-10-24T15:24:44.398Z,13.80
2022-10-24T15:25:51.180Z,28.10
2022-10-24T15:27:09.153Z,28.30
2022-10-24T15:28:20.344Z,27.40
2022-10-24T15:29:22.689Z,25.20
2022-10-24T15:30:32.846Z,26.30
2022-10-24T15:31:37.585Z,27.80
2022-10-24T15:32:39.542Z,24.80
2022-10-24T15:33:41.961Z,22.60
2022-10-24T15:34:44.694Z,26.40
2022-10-24T15:35:50.300Z,35.10
2022-10-24T15:36:53.816Z,27.40
2022-10-24T15:38:05.642Z,30.00
2022-10-24T15:39:14.576Z,29.40
2022-10-24T15:40:23.086Z,24.60
2022-10-24T15:41:26.473Z,26.90
2022-10-24T15:42:28.442Z,28.30
2022-10-24T15:43:30.072Z,23.67
2022-10-24T15:44:32.269Z,24.78
2022-10-24T15:45:34.040Z,26.40
2022-10-24T15:46:36.371Z,28.89
2022-10-24T15:47:39.227Z,28.40
2022-10-24T15:48:41.669Z,27.40
2022-10-24T15:49:43.811Z,29.40
2022-10-24T15:50:47.192Z,19.20
2022-10-24T15:51:51.109Z,25.60
2022-10-24T15:52:55.804Z,25.80
2022-10-24T15:53:58.704Z,25.90
2022-10-24T15:55:01.636Z,31.30
2022-10-24T15:56:04.407Z,26.70
2022-10-24T15:57:06.385Z,32.10
2022-10-24T15:58:11.634Z,27.40
2022-10-24T15:59:15.341Z,27.80
2022-10-24T16:00:21.768Z,26.80
2022-10-24T16:01:30.973Z,28.40
2022-10-24T16:02:33.841Z,26.70
2022-10-24T16:03:35.864Z,26.45
2022-10-24T16:04:38.945Z,28.50
2022-10-24T16:05:45.600Z,26.80
2022-10-24T16:06:49.718Z,30.70
2022-10-24T16:07:58.731Z,31.20
2022-10-24T16:09:04.267Z,29.20
2022-10-24T16:10:08.152Z,26.90
2022-10-24T16:11:11.553Z,24.10
2022-10-24T16:12:13.966Z,25.60
2022-10-24T16:13:17.614Z,30.70
2022-10-24T16:14:21.247Z,26.90
2022-10-24T16:15:27.568Z,24.80
2022-10-24T16:16:29.554Z,29.80
2022-10-24T16:17:32.386Z,28.89
2022-10-24T16:18:34.662Z,28.55
2022-10-24T16:19:38.498Z,29.70
2022-10-24T16:20:42.723Z,30.70
2022-10-24T16:21:45.100Z,28.10
2022-10-24T16:22:47.759Z,30.60
2022-10-24T16:24:54.019Z,34.10
2022-10-24T16:25:56.030Z,30.70
2022-10-24T16:26:58.956Z,32.10
2022-10-24T16:28:01.586Z,31.80
2022-10-24T16:29:04.359Z,34.90
2022-10-24T16:30:08.126Z,30.90
2022-10-24T16:31:12.961Z,33.10
2022-10-24T16:32:15.901Z,38.60
2022-10-24T16:33:19.724Z,32.70
2022-10-24T16:34:22.212Z,36.60
2022-10-24T16:35:30.587Z,42.80
2022-10-24T16:36:33.694Z,51.20
2022-10-24T16:37:36.080Z,55.60
2022-10-24T16:38:37.925Z,50.67
2022-10-24T16:39:39.691Z,56.56
2022-10-24T16:40:45.046Z,53.22
2022-10-24T16:41:46.974Z,55.80
2022-10-24T16:42:50.957Z,45.22
2022-10-24T16:43:57.276Z,46.50
2022-10-24T16:44:59.474Z,40.60
2022-10-24T16:46:02.409Z,46.44
2022-10-24T16:47:05.415Z,42.90
2022-10-24T16:48:07.766Z,44.00
2022-10-24T16:49:10.987Z,43.40
2022-10-24T16:50:16.816Z,39.70
2022-10-24T16:51:22.349Z,43.50
2022-10-24T16:52:25.080Z,32.50
2022-10-24T16:53:27.163Z,35.45
2022-10-24T16:54:29.072Z,36.60
2022-10-24T16:55:31.971Z,40.22
2022-10-24T16:56:34.165Z,38.50
2022-10-24T16:57:36.466Z,36.00
2022-10-24T16:58:41.223Z,34.80
2022-10-24T16:59:43.990Z,37.30
2022-10-24T17:00:47.599Z,34.40
2022-10-24T17:01:49.926Z,32.90
2022-10-24T17:02:55.386Z,35.50
2022-10-24T17:03:57.368Z,36.60
2022-10-24T17:04:59.730Z,39.60
2022-10-24T17:06:02.269Z,30.90
2022-10-24T17:07:04.282Z,34.00
2022-10-24T17:08:06.229Z,36.30
2022-10-24T17:09:08.005Z,33.67
2022-10-24T17:10:12.328Z,29.00
2022-10-24T17:11:43.257Z,33.10
2022-10-24T17:12:19.412Z,31.30
2022-10-24T17:13:21.826Z,33.40
2022-10-24T17:14:23.723Z,34.30
2022-10-24T17:15:25.608Z,33.44
2022-10-24T17:16:27.817Z,32.30
2022-10-24T17:17:30.687Z,28.20
2022-10-24T17:18:32.800Z,35.30
2022-10-24T19:10:23.842Z,55.20
2022-10-24T19:11:26.600Z,62.40
2022-10-24T19:12:29.142Z,52.60
2022-10-24T19:13:31.153Z,52.20
2022-10-24T19:14:33.465Z,54.67
2022-10-24T19:15:39.750Z,49.50
2022-10-24T19:16:43.379Z,54.40
2022-10-24T19:17:47.246Z,48.30
2022-10-24T19:18:55.301Z,47.30
2022-10-24T19:19:57.167Z,41.30
2022-10-24T19:21:00.822Z,41.44
2022-10-24T19:22:02.785Z,37.70
2022-10-24T19:23:06.339Z,35.10
2022-10-24T19:24:11.073Z,41.90
2022-10-24T19:25:15.585Z,37.80
2022-10-24T19:26:20.190Z,37.40
2022-10-24T19:27:22.819Z,36.90
2022-10-24T19:28:26.181Z,37.45
2022-10-24T19:29:28.522Z,35.50
2022-10-24T19:30:30.860Z,38.70
2022-10-24T19:31:33.469Z,31.40
2022-10-24T19:32:36.592Z,38.00
2022-10-24T19:33:38.838Z,36.45
2022-10-24T19:34:42.089Z,37.90
2022-10-24T19:35:45.040Z,39.10
2022-10-24T19:36:49.546Z,37.60
2022-10-24T19:37:51.813Z,39.10
2022-10-24T19:38:54.923Z,34.30
2022-10-24T19:39:56.844Z,40.30
2022-10-24T19:40:59.605Z,41.50
2022-10-24T19:42:02.707Z,38.10
2022-10-24T19:43:05.219Z,36.70
2022-10-24T19:44:07.343Z,36.00
2022-10-24T19:45:09.466Z,34.30
2022-10-24T19:46:19.670Z,37.50
2022-10-24T19:47:17.227Z,38.60
2022-10-24T19:48:20.617Z,38.60
2022-10-24T19:49:23.565Z,31.20
2022-10-24T19:50:25.422Z,32.82
2022-10-24T19:51:27.444Z,30.78
2022-10-24T19:52:29.380Z,33.00
2022-10-24T19:53:35.070Z,30.78
2022-10-24T19:54:37.271Z,32.10
2022-10-24T19:55:39.530Z,35.60
2022-10-24T19:56:42.782Z,24.90
2022-10-24T19:57:47.072Z,29.40
2022-10-24T19:58:50.615Z,29.30
2022-10-24T19:59:53.837Z,32.30
2022-10-24T20:01:05.185Z,29.40
2022-10-24T20:02:07.269Z,27.30
2022-10-24T20:03:09.228Z,26.22
2022-10-24T20:04:11.987Z,32.89
2022-10-24T20:05:13.959Z,27.00
2022-10-24T20:06:16.792Z,24.60
2022-10-24T20:07:19.180Z,31.80
2022-10-24T20:08:21.985Z,28.00
2022-10-24T20:09:24.014Z,20.50
2022-10-24T20:10:26.324Z,31.20
2022-10-24T20:11:29.207Z,29.90
2022-10-24T20:12:31.344Z,34.60
2022-10-24T20:13:36.953Z,31.78
2022-10-24T20:14:42.261Z,34.20
2022-10-24T20:15:46.787Z,28.00
2022-10-24T20:16:48.856Z,26.30
2022-10-24T20:17:53.191Z,28.70
2022-10-24T20:18:56.278Z,33.40